Portland, Oregon
Current Conditions -  °F | °C
As of 9:53 AM on Friday 28 Nov 2014 (Local Time) from KPDX Reporting Station
Light Rain Light Rain  
Wind Chill: 55°   Ceiling: 2200
Heat Index: 55°   Visibility: 10mi
Dew Point: 51°   Wind: 15mph
Humidity: 86%   Direction: 170°S
Pressure: 29.61"   Gusts: 26mph
Location:  45.51°N, 122.67°W
Report Text: KPDX 281753Z 17013G23KT 10SM -RA SCT017 BKN022 OVC034 13/11 A2961 RMK AO2 RAB44 SLP024 P0000 60007 T01280106 10128 20117 56017
Loading
Personal Weather Stations






























Interactive Weather Map New forecast layout! Learn more

10-Day Weather Forecast

Advertisements
Track Severe Weather on mobile